Kanawha City, West Virginia
Current Conditions -  °F | °C
As of 10:54 PM on Friday 19 Dec 2014 (Local Time) from KCRW Reporting Station
Overcast Overcast  
Wind Chill: -4°   Ceiling: 2200
Heat Index: -1°   Visibility: 10mi
Dew Point: -6°   Wind: 5mph
Humidity: 72%   Direction: 50°NE
Pressure: 30.26"   Gusts: NA
Location:  38.301°N, 81.5932°W
Report Text: KCRW 200354Z 05004KT 10SM OVC022 M01/M06 A3026 RMK AO2 SLP257 T10111056
Loading
Personal Weather Stations






























Interactive Weather Map New forecast layout! Learn more

10-Day Weather Forecast

Advertisements
Track Severe Weather on mobile